Orange8 — JL6278 — position and weather

sailwx.info

Track history (hours):
 
Tides and Currents Weather Stations Pressure Air Temp Water Temp Dewpoint Dewpoint Depression Visibility Wind Speed Wind Dir Waves Ship Positions

Orange8

Last reported at 2016-Jun-30 09:33 UTC. Time now 2016-Jun-30 10:33 UTC.
Position N 34°37' E 135°26'.

Length 164 m; draft 5 m.

Type: Passenger vessel. MMSI: 431501603.

Date/timePositionNaut miles runAvg speedWind from/ knotsBaromVisibWave heightAir tempDewpointWater temp
2016-Jun-30 09:33N 34°37' E 135°26'0 0.0
2016-Jun-30 08:33N 34°37' E 135°26'0 0.0
2016-Jun-30 07:33N 34°37' E 135°26'0 0.0
2016-Jun-30 06:33N 34°37' E 135°26'0 0.0
2016-Jun-30 05:33N 34°37' E 135°26'0 0.0
2016-Jun-30 04:15N 34°37' E 135°26'0 0.0
2016-Jun-30 03:33N 34°37' E 135°26'0 0.0
2016-Jun-30 02:33N 34°37' E 135°26'0 0.0
2016-Jun-30 01:33N 34°37' E 135°26'0 0.0
2016-Jun-30 00:15N 34°37' E 135°26'0 0.0
2016-Jun-29 23:27N 34°37' E 135°26'0 0.0
2016-Jun-29 22:27N 34°37' E 135°26'0 0.0
2016-Jun-29 21:33N 34°37' E 135°26'5 4.7
2016-Jun-29 20:34N 34°36' E 135°20'1616.3
2016-Jun-29 19:33N 34°37' E 135°00'2 0.1
2016-Jun-28 14:33N 34°38' E 134°59'1717.0
2016-Jun-28 13:33N 34°36' E 135°19'6 5.6
2016-Jun-28 12:33N 34°37' E 135°26'0 0.0
2016-Jun-28 11:33N 34°37' E 135°26'0 0.0
2016-Jun-28 10:27N 34°37' E 135°26'0 0.0
2016-Jun-28 09:27N 34°37' E 135°26'0 0.0
2016-Jun-28 08:33N 34°37' E 135°26'0 0.0
2016-Jun-28 07:33N 34°37' E 135°26'0 0.0
2016-Jun-28 06:33N 34°37' E 135°26'0 0.0
2016-Jun-28 04:33N 34°37' E 135°26'0 0.0
2016-Jun-28 03:27N 34°37' E 135°26'0 0.0
2016-Jun-28 02:33N 34°37' E 135°26'0 0.0
2016-Jun-28 01:33N 34°37' E 135°26'0 0.0
2016-Jun-28 00:21N 34°37' E 135°26'0 0.0
2016-Jun-27 23:33N 34°37' E 135°26'0 0.0
2016-Jun-27 22:33N 34°37' E 135°26'0 0.0
2016-Jun-27 21:33N 34°37' E 135°26'6 6.0
2016-Jun-27 20:33N 34°35' E 135°19'1918.6
2016-Jun-27 19:32N 34°36' E 134°56'4 0.1
2016-Jun-26 14:33N 34°38' E 134°60'1818.5
2016-Jun-26 13:33N 34°37' E 135°22'3 3.3
2016-Jun-26 12:30N 34°37' E 135°26'0 0.0
2016-Jun-26 11:18N 34°37' E 135°26'0 0.0
2016-Jun-26 10:30N 34°37' E 135°26'0 0.0
2016-Jun-26 09:30N 34°37' E 135°26'0 0.0
2016-Jun-26 08:30N 34°37' E 135°26'0 0.0
2016-Jun-26 07:24N 34°37' E 135°26'0 0.0
2016-Jun-26 06:30N 34°37' E 135°26'0 0.0
2016-Jun-26 05:30N 34°37' E 135°26'0 0.0
2016-Jun-26 04:30N 34°37' E 135°26'0 0.0
2016-Jun-26 03:30N 34°37' E 135°26'0 0.0
2016-Jun-26 02:24N 34°37' E 135°26'0 0.0
2016-Jun-26 01:30N 34°37' E 135°26'0 0.0
2016-Jun-25 23:30N 34°37' E 135°26'0 0.0
2016-Jun-25 22:30N 34°37' E 135°26'0 0.0
2016-Jun-25 21:30N 34°37' E 135°26'5 5.5
2016-Jun-25 20:33N 34°36' E 135°20'1817.7
2016-Jun-25 19:33N 34°37' E 134°58'15 0.5
2016-Jun-24 15:12N 34°31' E 134°41'1421.2
2016-Jun-24 14:33N 34°37' E 134°56'1918.8
2016-Jun-24 13:33N 34°37' E 135°19'5 5.2
2016-Jun-24 12:30N 34°37' E 135°26'0 0.0
2016-Jun-24 11:30N 34°37' E 135°26'0 0.0
2016-Jun-24 10:30N 34°37' E 135°26'0 0.0
2016-Jun-24 09:30N 34°37' E 135°26'0 0.0
2016-Jun-24 08:30N 34°37' E 135°26'0 0.0
2016-Jun-24 07:30N 34°37' E 135°26'0 0.0
2016-Jun-24 04:30N 34°37' E 135°26'0 0.0
2016-Jun-24 03:30N 34°37' E 135°26'0 0.0
2016-Jun-24 02:24N 34°37' E 135°26'0 0.0
2016-Jun-24 01:30N 34°37' E 135°26'0 0.0
2016-Jun-24 00:30N 34°37' E 135°26'0 0.0
2016-Jun-23 23:30N 34°37' E 135°26'0 0.0
2016-Jun-23 22:30N 34°37' E 135°26'0 0.0
2016-Jun-23 21:30N 34°37' E 135°26'5 5.0
2016-Jun-23 20:33N 34°36' E 135°20'1515.0
2016-Jun-23 19:33N 34°36' E 135°02'4 0.1
2016-Jun-22 14:34N 34°37' E 134°57'1818.1
2016-Jun-22 13:34N 34°37' E 135°19'6 5.2
2016-Jun-22 12:28N 34°37' E 135°26'0 0.0
2016-Jun-22 11:28N 34°37' E 135°26'0 0.0
2016-Jun-22 10:22N 34°37' E 135°26'0 0.0
2016-Jun-22 09:10N 34°37' E 135°26'0 0.0
2016-Jun-22 08:28N 34°37' E 135°26'0 0.0
2016-Jun-22 07:22N 34°37' E 135°26'0 0.0
2016-Jun-22 06:16N 34°37' E 135°26'0 0.0
2016-Jun-22 05:28N 34°37' E 135°26'0 0.0
2016-Jun-22 04:28N 34°37' E 135°26'0 0.0
2016-Jun-22 03:28N 34°37' E 135°26'0 0.0
2016-Jun-22 02:28N 34°37' E 135°26'0 0.0
2016-Jun-22 01:28N 34°37' E 135°26'0 0.0
2016-Jun-22 00:16N 34°37' E 135°26'0 0.0
2016-Jun-21 23:28N 34°37' E 135°26'0 0.0
2016-Jun-21 22:28N 34°37' E 135°26'0 0.0
2016-Jun-21 21:16N 34°37' E 135°26'4 6.3
2016-Jun-21 20:33N 34°36' E 135°21'1716.8
2016-Jun-21 19:33N 34°37' E 134°60'3 0.1
2016-Jun-20 14:34N 34°37' E 134°57'1818.3
2016-Jun-20 13:33N 34°37' E 135°19'6 5.4
2016-Jun-20 12:29N 34°37' E 135°26'0 0.0
2016-Jun-20 11:29N 34°37' E 135°26'0 0.0
2016-Jun-20 10:29N 34°37' E 135°26'  
Track history (hours):
 
Tides and Currents Weather Stations Pressure Air Temp Water Temp Dewpoint Dewpoint Depression Visibility Wind Speed Wind Dir Waves Ship Positions

Orange8

Last reported at 2016-Jun-30 09:33 UTC. Time now 2016-Jun-30 10:33 UTC.
Position N 34°37' E 135°26'.

Length 164 m; draft 5 m.

Type: Passenger vessel. MMSI: 431501603.

Date/timePositionNaut miles runAvg speedWind from/ knotsBaromVisibWave heightAir tempDewpointWater temp
2016-Jun-30 09:33N 34°37' E 135°26'0 0.0
2016-Jun-30 08:33N 34°37' E 135°26'0 0.0
2016-Jun-30 07:33N 34°37' E 135°26'0 0.0
2016-Jun-30 06:33N 34°37' E 135°26'0 0.0
2016-Jun-30 05:33N 34°37' E 135°26'0 0.0
2016-Jun-30 04:15N 34°37' E 135°26'0 0.0
2016-Jun-30 03:33N 34°37' E 135°26'0 0.0
2016-Jun-30 02:33N 34°37' E 135°26'0 0.0
2016-Jun-30 01:33N 34°37' E 135°26'0 0.0
2016-Jun-30 00:15N 34°37' E 135°26'0 0.0
2016-Jun-29 23:27N 34°37' E 135°26'0 0.0
2016-Jun-29 22:27N 34°37' E 135°26'0 0.0
2016-Jun-29 21:33N 34°37' E 135°26'5 4.7
2016-Jun-29 20:34N 34°36' E 135°20'1616.3
2016-Jun-29 19:33N 34°37' E 135°00'2 0.1
2016-Jun-28 14:33N 34°38' E 134°59'1717.0
2016-Jun-28 13:33N 34°36' E 135°19'6 5.6
2016-Jun-28 12:33N 34°37' E 135°26'0 0.0
2016-Jun-28 11:33N 34°37' E 135°26'0 0.0
2016-Jun-28 10:27N 34°37' E 135°26'0 0.0
2016-Jun-28 09:27N 34°37' E 135°26'0 0.0
2016-Jun-28 08:33N 34°37' E 135°26'0 0.0
2016-Jun-28 07:33N 34°37' E 135°26'0 0.0
2016-Jun-28 06:33N 34°37' E 135°26'0 0.0
2016-Jun-28 04:33N 34°37' E 135°26'0 0.0
2016-Jun-28 03:27N 34°37' E 135°26'0 0.0
2016-Jun-28 02:33N 34°37' E 135°26'0 0.0
2016-Jun-28 01:33N 34°37' E 135°26'0 0.0
2016-Jun-28 00:21N 34°37' E 135°26'0 0.0
2016-Jun-27 23:33N 34°37' E 135°26'0 0.0
2016-Jun-27 22:33N 34°37' E 135°26'0 0.0
2016-Jun-27 21:33N 34°37' E 135°26'6 6.0
2016-Jun-27 20:33N 34°35' E 135°19'1918.6
2016-Jun-27 19:32N 34°36' E 134°56'4 0.1
2016-Jun-26 14:33N 34°38' E 134°60'1818.5
2016-Jun-26 13:33N 34°37' E 135°22'3 3.3
2016-Jun-26 12:30N 34°37' E 135°26'0 0.0
2016-Jun-26 11:18N 34°37' E 135°26'0 0.0
2016-Jun-26 10:30N 34°37' E 135°26'0 0.0
2016-Jun-26 09:30N 34°37' E 135°26'0 0.0
2016-Jun-26 08:30N 34°37' E 135°26'0 0.0
2016-Jun-26 07:24N 34°37' E 135°26'0 0.0
2016-Jun-26 06:30N 34°37' E 135°26'0 0.0
2016-Jun-26 05:30N 34°37' E 135°26'0 0.0
2016-Jun-26 04:30N 34°37' E 135°26'0 0.0
2016-Jun-26 03:30N 34°37' E 135°26'0 0.0
2016-Jun-26 02:24N 34°37' E 135°26'0 0.0
2016-Jun-26 01:30N 34°37' E 135°26'0 0.0
2016-Jun-25 23:30N 34°37' E 135°26'0 0.0
2016-Jun-25 22:30N 34°37' E 135°26'0 0.0
2016-Jun-25 21:30N 34°37' E 135°26'5 5.5
2016-Jun-25 20:33N 34°36' E 135°20'1817.7
2016-Jun-25 19:33N 34°37' E 134°58'15 0.5
2016-Jun-24 15:12N 34°31' E 134°41'1421.2
2016-Jun-24 14:33N 34°37' E 134°56'1918.8
2016-Jun-24 13:33N 34°37' E 135°19'5 5.2
2016-Jun-24 12:30N 34°37' E 135°26'0 0.0
2016-Jun-24 11:30N 34°37' E 135°26'0 0.0
2016-Jun-24 10:30N 34°37' E 135°26'0 0.0
2016-Jun-24 09:30N 34°37' E 135°26'0 0.0
2016-Jun-24 08:30N 34°37' E 135°26'0 0.0
2016-Jun-24 07:30N 34°37' E 135°26'0 0.0
2016-Jun-24 04:30N 34°37' E 135°26'0 0.0
2016-Jun-24 03:30N 34°37' E 135°26'0 0.0
2016-Jun-24 02:24N 34°37' E 135°26'0 0.0
2016-Jun-24 01:30N 34°37' E 135°26'0 0.0
2016-Jun-24 00:30N 34°37' E 135°26'0 0.0
2016-Jun-23 23:30N 34°37' E 135°26'0 0.0
2016-Jun-23 22:30N 34°37' E 135°26'0 0.0
2016-Jun-23 21:30N 34°37' E 135°26'5 5.0
2016-Jun-23 20:33N 34°36' E 135°20'1515.0
2016-Jun-23 19:33N 34°36' E 135°02'4 0.1
2016-Jun-22 14:34N 34°37' E 134°57'1818.1
2016-Jun-22 13:34N 34°37' E 135°19'6 5.2
2016-Jun-22 12:28N 34°37' E 135°26'0 0.0
2016-Jun-22 11:28N 34°37' E 135°26'0 0.0
2016-Jun-22 10:22N 34°37' E 135°26'0 0.0
2016-Jun-22 09:10N 34°37' E 135°26'0 0.0
2016-Jun-22 08:28N 34°37' E 135°26'0 0.0
2016-Jun-22 07:22N 34°37' E 135°26'0 0.0
2016-Jun-22 06:16N 34°37' E 135°26'0 0.0
2016-Jun-22 05:28N 34°37' E 135°26'0 0.0
2016-Jun-22 04:28N 34°37' E 135°26'0 0.0
2016-Jun-22 03:28N 34°37' E 135°26'0 0.0
2016-Jun-22 02:28N 34°37' E 135°26'0 0.0
2016-Jun-22 01:28N 34°37' E 135°26'0 0.0
2016-Jun-22 00:16N 34°37' E 135°26'0 0.0
2016-Jun-21 23:28N 34°37' E 135°26'0 0.0
2016-Jun-21 22:28N 34°37' E 135°26'0 0.0
2016-Jun-21 21:16N 34°37' E 135°26'4 6.3
2016-Jun-21 20:33N 34°36' E 135°21'1716.8
2016-Jun-21 19:33N 34°37' E 134°60'3 0.1
2016-Jun-20 14:34N 34°37' E 134°57'1818.3
2016-Jun-20 13:33N 34°37' E 135°19'6 5.4
2016-Jun-20 12:29N 34°37' E 135°26'0 0.0
2016-Jun-20 11:29N 34°37' E 135°26'0 0.0
2016-Jun-20 10:29N 34°37' E 135°26'  

Dump ship's entire track history